KDUG/DUG METAR and TAF weather

Enter ICAO airport designator
Station Type Date Time Source
KDUG METAR 2019/12/08 13:56 UTC NOAA

KDUG 081356Z AUTO 13004KT 10SM OVC085 09/05 A3013 RMK AO2 SLP171 T00940050


Station Type Date Time Source
KDUG Decoded METAR 2019/12/08 13:56 UTC NOAA

BISBEE DOUGLAS INTERNATIONAL AIRPORT , AZ, United States (KDUG) 31-28N 109-36W
Dec 08, 2019 - 08:56 AM EST / 2019.12.08 1356 UTC
Wind: from the SE (130 degrees) at 5 MPH (4 KT):0
Visibility: 10 mile(s):0
Sky conditions: overcast
Temperature: 48.9 F (9.4 C)
Dew Point: 41.0 F (5.0 C)
Relative Humidity: 73%
Pressure (altimeter): 30.13 in. Hg (1020 hPa)
ob: KDUG 081356Z AUTO 13004KT 10SM OVC085 09/05 A3013 RMK AO2 SLP171 T00940050
cycle: 14

Station Type Date Time Source
KDUG TAF 2019/12/08 12:36 UTC NOAA

TAF KDUG 081133Z 0812/0912 VRB03KT P6SM SCT080 BKN130
FM081900 26011G18KT P6SM SCT050 OVC100
FM090100 25008KT P6SM SCT050 OVC080
FM090600 21012G18KT P6SM -RA SCT025 OVC040

Example: see airport list